createdAt,value
2023-02-09T00:01:25.836Z,79.91
2023-02-09T00:03:54.315Z,79.74
2023-02-09T00:06:24.373Z,78.72
2023-02-09T00:08:54.811Z,78.90
2023-02-09T00:11:46.514Z,79.15
2023-02-09T00:14:15.214Z,78.42
2023-02-09T00:16:43.641Z,76.56
2023-02-09T00:19:12.439Z,75.82
2023-02-09T00:21:41.353Z,76.26
2023-02-09T00:24:11.685Z,74.40
2023-02-09T00:26:40.119Z,74.75
2023-02-09T00:29:08.674Z,72.32
2023-02-09T00:31:37.262Z,71.59
2023-02-09T00:34:05.646Z,71.77
2023-02-09T00:36:34.180Z,71.20
2023-02-09T00:39:02.107Z,69.40
2023-02-09T00:41:49.135Z,70.11
2023-02-09T00:44:17.227Z,69.83
2023-02-09T00:46:45.145Z,69.70
2023-02-09T00:49:13.156Z,69.49
2023-02-09T00:51:41.188Z,68.14
2023-02-09T00:54:09.096Z,66.25
2023-02-09T00:56:38.451Z,63.89
2023-02-09T00:59:06.480Z,64.21
2023-02-09T01:01:34.345Z,64.25
2023-02-09T01:04:02.379Z,63.03
2023-02-09T01:06:30.985Z,64.00
2023-02-09T01:08:59.194Z,62.41
2023-02-09T01:11:28.503Z,62.17
2023-02-09T01:13:59.609Z,59.93
2023-02-09T01:16:28.849Z,61.02
2023-02-09T01:18:57.443Z,60.07
2023-02-09T01:21:25.944Z,61.20
2023-02-09T01:23:53.859Z,61.83
2023-02-09T01:26:22.306Z,61.88
2023-02-09T01:28:51.584Z,60.18
2023-02-09T01:31:24.327Z,61.60
2023-02-09T01:33:53.106Z,60.02
2023-02-09T01:36:21.722Z,59.94
2023-02-09T01:38:49.764Z,60.63
2023-02-09T01:41:19.093Z,60.77
2023-02-09T01:44:06.702Z,60.94
2023-02-09T01:46:37.878Z,59.64
2023-02-09T01:49:09.184Z,60.05
2023-02-09T01:51:43.262Z,58.75
2023-02-09T01:54:16.588Z,59.42
2023-02-09T01:56:48.791Z,60.04
2023-02-09T01:59:17.605Z,60.23
2023-02-09T02:01:47.290Z,60.08
2023-02-09T02:04:15.617Z,60.82
2023-02-09T02:06:43.939Z,60.70
2023-02-09T02:09:13.951Z,60.88
2023-02-09T02:11:44.523Z,60.96
2023-02-09T02:14:29.648Z,60.65
2023-02-09T02:17:06.939Z,61.11
2023-02-09T02:20:00.631Z,60.63
2023-02-09T02:22:44.914Z,59.54
2023-02-09T02:25:42.400Z,59.33
2023-02-09T02:28:32.271Z,58.53
2023-02-09T02:31:19.039Z,58.77
2023-02-09T02:33:58.280Z,59.46
2023-02-09T02:36:32.248Z,58.99
2023-02-09T02:39:07.908Z,59.62
2023-02-09T02:41:58.202Z,59.58
2023-02-09T02:44:29.183Z,58.85
2023-02-09T02:47:02.437Z,58.22
2023-02-09T02:49:37.537Z,59.63
2023-02-09T02:52:09.292Z,59.20
2023-02-09T02:54:41.516Z,59.90
2023-02-09T02:57:16.157Z,59.41
2023-02-09T02:59:47.687Z,59.43
2023-02-09T03:02:21.168Z,58.75
2023-02-09T03:04:53.858Z,59.46
2023-02-09T03:07:21.798Z,59.27
2023-02-09T03:09:50.716Z,59.07
2023-02-09T03:12:25.602Z,59.46
2023-02-09T03:15:12.316Z,59.85
2023-02-09T03:17:48.490Z,60.40
2023-02-09T03:20:26.839Z,60.70
2023-02-09T03:22:59.019Z,59.98
2023-02-09T03:25:31.985Z,60.03
2023-02-09T03:28:07.144Z,59.62
2023-02-09T03:30:36.165Z,60.22
2023-02-09T03:33:05.978Z,59.85
2023-02-09T03:35:39.979Z,59.23
2023-02-09T03:38:08.014Z,58.54
2023-02-09T03:40:36.442Z,58.75
2023-02-09T03:43:04.501Z,58.63
2023-02-09T03:45:32.417Z,58.30
2023-02-09T03:48:00.288Z,58.17
2023-02-09T03:50:29.983Z,58.23
2023-02-09T03:52:59.403Z,57.90
2023-02-09T03:55:27.423Z,58.66
2023-02-09T03:57:55.563Z,58.40
2023-02-09T04:00:23.587Z,59.24
2023-02-09T04:02:51.480Z,58.67
2023-02-09T04:05:20.090Z,58.81
2023-02-09T04:07:48.327Z,59.39
2023-02-09T04:10:17.690Z,58.72
2023-02-09T04:12:45.806Z,59.79
2023-02-09T04:15:13.653Z,59.27
2023-02-09T04:17:41.514Z,59.51
2023-02-09T04:20:10.145Z,59.14
2023-02-09T04:22:37.981Z,59.51
2023-02-09T04:25:06.480Z,59.18
2023-02-09T04:27:36.179Z,59.00
2023-02-09T04:30:04.082Z,59.15
2023-02-09T04:32:32.111Z,59.36
2023-02-09T04:35:00.088Z,59.12
2023-02-09T04:37:27.913Z,58.82
2023-02-09T04:39:55.911Z,59.41
2023-02-09T04:42:24.956Z,58.89
2023-02-09T04:44:54.233Z,58.90
2023-02-09T04:47:22.165Z,59.15
2023-02-09T04:49:50.161Z,59.09
2023-02-09T04:52:18.684Z,58.87
2023-02-09T04:54:46.614Z,59.17
2023-02-09T04:57:31.752Z,59.29
2023-02-09T05:00:01.196Z,59.34
2023-02-09T05:02:29.106Z,59.48
2023-02-09T05:04:57.206Z,59.64
2023-02-09T05:07:26.558Z,59.93
2023-02-09T05:09:54.418Z,59.59
2023-02-09T05:12:22.326Z,60.06
2023-02-09T05:14:50.234Z,60.33
2023-02-09T05:17:21.120Z,60.41
2023-02-09T05:19:49.208Z,60.15
2023-02-09T05:22:17.311Z,60.30
2023-02-09T05:24:45.185Z,60.18
2023-02-09T05:27:13.121Z,60.44
2023-02-09T05:29:41.089Z,60.54
2023-02-09T05:32:09.054Z,59.89
2023-02-09T05:34:38.413Z,60.61
2023-02-09T05:37:06.342Z,59.79
2023-02-09T05:39:34.233Z,59.51
2023-02-09T05:42:17.694Z,59.80
2023-02-09T05:44:46.974Z,59.43
2023-02-09T05:47:16.833Z,60.10
2023-02-09T05:49:46.955Z,59.78
2023-02-09T05:52:16.692Z,59.59
2023-02-09T05:54:44.891Z,59.51
2023-02-09T05:57:12.902Z,60.20
2023-02-09T05:59:40.789Z,60.62
2023-02-09T06:02:08.663Z,60.35
2023-02-09T06:04:36.836Z,60.79
2023-02-09T06:07:06.194Z,60.84
2023-02-09T06:09:34.312Z,59.90
2023-02-09T06:12:02.468Z,60.97
2023-02-09T06:14:30.292Z,61.26
2023-02-09T06:16:58.152Z,60.73
2023-02-09T06:19:26.342Z,60.78
2023-02-09T06:21:54.311Z,60.20
2023-02-09T06:24:23.766Z,60.91
2023-02-09T06:26:51.938Z,60.64
2023-02-09T06:29:19.865Z,61.02
2023-02-09T06:31:47.998Z,60.20
2023-02-09T06:34:16.090Z,60.58
2023-02-09T06:36:44.284Z,60.39
2023-02-09T06:39:12.497Z,61.04
2023-02-09T06:41:41.909Z,60.38
2023-02-09T06:44:09.921Z,60.63
2023-02-09T06:46:37.867Z,60.76
2023-02-09T06:49:06.083Z,60.71
2023-02-09T06:51:34.035Z,60.88
2023-02-09T06:54:02.060Z,60.21
2023-02-09T06:56:30.203Z,59.85
2023-02-09T06:58:59.435Z,60.64
2023-02-09T07:01:27.269Z,60.79
2023-02-09T07:03:55.459Z,60.47
2023-02-09T07:06:23.292Z,60.28
2023-02-09T07:08:51.769Z,59.96
2023-02-09T07:11:20.871Z,60.23
2023-02-09T07:13:48.996Z,60.50
2023-02-09T07:16:18.244Z,59.72
2023-02-09T07:18:46.379Z,60.09
2023-02-09T07:21:18.650Z,60.51
2023-02-09T07:23:47.572Z,60.33
2023-02-09T07:26:17.386Z,60.23
2023-02-09T07:28:45.959Z,60.22
2023-02-09T07:31:16.266Z,60.57
2023-02-09T07:33:46.047Z,60.45
2023-02-09T07:36:16.400Z,60.72
2023-02-09T07:38:44.777Z,60.57
2023-02-09T07:41:16.414Z,60.72
2023-02-09T07:43:44.836Z,60.69
2023-02-09T07:46:15.512Z,60.45
2023-02-09T07:48:44.908Z,60.61
2023-02-09T07:51:15.044Z,60.80
2023-02-09T07:53:42.900Z,61.31
2023-02-09T07:56:10.916Z,61.33
2023-02-09T07:58:39.032Z,61.51
2023-02-09T08:01:08.930Z,61.72
2023-02-09T08:03:37.772Z,61.84
2023-02-09T08:06:13.388Z,61.59
2023-02-09T08:08:41.253Z,61.97
2023-02-09T08:11:09.179Z,61.36
2023-02-09T08:13:41.100Z,61.46
2023-02-09T08:16:11.490Z,62.54
2023-02-09T08:18:44.223Z,61.87
2023-02-09T08:21:17.422Z,61.72
2023-02-09T08:23:49.495Z,61.83
2023-02-09T08:26:17.491Z,61.66
2023-02-09T08:28:45.868Z,62.64
2023-02-09T08:31:14.994Z,62.01
2023-02-09T08:33:44.062Z,62.16
2023-02-09T08:36:14.458Z,61.75
2023-02-09T08:38:43.007Z,61.17
2023-02-09T08:41:14.007Z,61.17
2023-02-09T08:43:41.856Z,60.69
2023-02-09T08:46:12.161Z,61.02
2023-02-09T08:48:42.787Z,60.70
2023-02-09T08:51:14.687Z,60.82
2023-02-09T08:53:43.412Z,59.50
2023-02-09T08:56:11.725Z,59.63
2023-02-09T08:58:39.839Z,59.81
2023-02-09T09:01:07.815Z,59.49
2023-02-09T09:03:35.803Z,59.48
2023-02-09T09:06:05.638Z,60.03
2023-02-09T09:08:36.200Z,59.42
2023-02-09T09:11:06.611Z,59.34
2023-02-09T09:13:35.091Z,59.29
2023-02-09T09:16:05.114Z,60.14
2023-02-09T09:18:33.433Z,59.58
2023-02-09T09:21:01.472Z,59.60
2023-02-09T09:23:29.332Z,58.60
2023-02-09T09:26:03.259Z,58.54
2023-02-09T09:28:31.812Z,58.33
2023-02-09T09:31:06.040Z,58.51
2023-02-09T09:33:34.321Z,58.34
2023-02-09T09:36:02.568Z,59.22
2023-02-09T09:38:30.771Z,59.01
2023-02-09T09:40:58.822Z,58.65
2023-02-09T09:43:32.721Z,58.53
2023-02-09T09:46:01.833Z,58.95
2023-02-09T09:48:38.852Z,59.03
2023-02-09T09:51:13.313Z,58.56
2023-02-09T09:53:45.135Z,58.46
2023-02-09T09:56:15.387Z,57.96
2023-02-09T09:58:45.708Z,57.65
2023-02-09T10:01:15.489Z,57.62
2023-02-09T10:03:43.590Z,57.80
2023-02-09T10:06:16.445Z,58.41
2023-02-09T10:08:47.208Z,58.38
2023-02-09T10:11:17.633Z,58.25
2023-02-09T10:13:50.863Z,58.10
2023-02-09T10:16:20.797Z,57.77
2023-02-09T10:18:51.693Z,56.90
2023-02-09T10:21:20.022Z,57.02
2023-02-09T10:23:50.408Z,57.26
2023-02-09T10:26:25.033Z,57.49
2023-02-09T10:28:56.679Z,57.40
2023-02-09T10:31:42.652Z,58.24
2023-02-09T10:34:16.662Z,58.53
2023-02-09T10:36:49.677Z,58.34
2023-02-09T10:39:20.766Z,57.72
2023-02-09T10:41:51.267Z,58.13
2023-02-09T10:44:25.947Z,58.46
2023-02-09T10:47:10.914Z,57.97
2023-02-09T10:49:40.132Z,57.44
2023-02-09T10:52:16.306Z,57.57
2023-02-09T10:54:48.987Z,57.85
2023-02-09T10:57:28.906Z,58.18
2023-02-09T11:00:00.581Z,57.89
2023-02-09T11:02:38.106Z,58.01
2023-02-09T11:05:34.084Z,57.60
2023-02-09T11:08:15.658Z,57.62
2023-02-09T11:10:50.668Z,58.24
2023-02-09T11:13:22.367Z,57.68
2023-02-09T11:16:09.682Z,58.21
2023-02-09T11:18:38.155Z,58.37
2023-02-09T11:21:12.043Z,58.46
2023-02-09T11:23:52.313Z,58.40
2023-02-09T11:26:32.632Z,58.88
2023-02-09T11:29:07.714Z,58.84
2023-02-09T11:31:51.267Z,58.39
2023-02-09T11:34:35.940Z,58.78
2023-02-09T11:37:16.494Z,58.70
2023-02-09T11:39:52.023Z,58.83
2023-02-09T11:42:43.223Z,58.72
2023-02-09T11:45:15.764Z,59.18
2023-02-09T11:47:54.919Z,59.75
2023-02-09T11:50:28.179Z,59.62
2023-02-09T11:53:00.454Z,59.62
2023-02-09T11:55:32.990Z,59.97
2023-02-09T11:58:10.618Z,60.09
2023-02-09T12:00:54.838Z,60.06
2023-02-09T12:03:29.202Z,60.85
2023-02-09T12:05:57.631Z,60.54
2023-02-09T12:08:38.213Z,60.99
2023-02-09T12:11:20.633Z,61.57
2023-02-09T12:14:10.092Z,61.79
2023-02-09T12:16:42.387Z,61.88
2023-02-09T12:19:27.370Z,62.20
2023-02-09T12:21:55.507Z,62.89
2023-02-09T12:24:35.319Z,62.96
2023-02-09T12:27:03.337Z,63.04
2023-02-09T12:29:40.052Z,63.17
2023-02-09T12:32:25.655Z,63.80
2023-02-09T12:34:56.925Z,63.57
2023-02-09T12:37:28.049Z,63.72
2023-02-09T12:40:25.017Z,64.13
2023-02-09T12:43:12.795Z,64.00
2023-02-09T12:45:43.034Z,64.25
2023-02-09T12:48:19.368Z,64.86
2023-02-09T12:50:54.802Z,64.83
2023-02-09T12:53:45.276Z,65.43
2023-02-09T12:56:34.597Z,65.32
2023-02-09T12:59:17.035Z,65.61
2023-02-09T13:02:25.289Z,65.59
2023-02-09T13:05:03.098Z,66.07
2023-02-09T13:07:50.488Z,66.29
2023-02-09T13:10:25.761Z,66.44
2023-02-09T13:12:58.307Z,66.98
2023-02-09T13:15:30.271Z,67.31
2023-02-09T13:18:15.207Z,67.55
2023-02-09T13:21:17.032Z,68.02
2023-02-09T13:24:00.596Z,67.95
2023-02-09T13:26:32.831Z,68.39
2023-02-09T13:29:20.809Z,68.55
2023-02-09T13:32:00.251Z,68.61
2023-02-09T13:34:35.466Z,68.62
2023-02-09T13:37:16.347Z,68.56
2023-02-09T13:39:45.920Z,69.01
2023-02-09T13:42:20.897Z,69.27
2023-02-09T13:44:52.513Z,69.42
2023-02-09T13:47:21.181Z,69.52
2023-02-09T13:50:00.585Z,69.75
2023-02-09T13:52:36.430Z,69.97
2023-02-09T13:55:13.487Z,70.19
2023-02-09T13:57:44.695Z,70.25
2023-02-09T14:00:25.179Z,71.11
2023-02-09T14:02:55.999Z,71.29
2023-02-09T14:05:31.829Z,71.29
2023-02-09T14:08:00.799Z,71.04
2023-02-09T14:10:30.758Z,71.43
2023-02-09T14:13:04.027Z,71.18
2023-02-09T14:15:55.367Z,71.41
2023-02-09T14:18:30.436Z,72.00
2023-02-09T14:21:15.246Z,72.24
2023-02-09T14:23:45.887Z,72.30
2023-02-09T14:26:26.766Z,72.53
2023-02-09T14:29:06.186Z,72.33
2023-02-09T14:31:36.511Z,72.80
2023-02-09T14:34:04.574Z,72.75
2023-02-09T14:36:34.792Z,72.90
2023-02-09T14:39:14.080Z,73.38
2023-02-09T14:41:56.622Z,73.62
2023-02-09T14:44:24.971Z,73.29
2023-02-09T14:46:54.305Z,73.52
2023-02-09T14:49:23.436Z,73.47
2023-02-09T14:51:57.520Z,74.08
2023-02-09T14:54:27.873Z,73.90
2023-02-09T14:56:58.867Z,73.99
2023-02-09T14:59:26.702Z,73.93
2023-02-09T15:01:56.863Z,74.00
2023-02-09T15:04:24.829Z,74.24
2023-02-09T15:07:01.643Z,74.19
2023-02-09T15:09:35.237Z,74.24
2023-02-09T15:12:08.139Z,74.66
2023-02-09T15:14:43.643Z,74.86
2023-02-09T15:17:15.008Z,74.85
2023-02-09T15:19:43.438Z,75.34
2023-02-09T15:22:14.992Z,75.22
2023-02-09T15:24:43.681Z,75.73
2023-02-09T15:27:26.622Z,75.20
2023-02-09T15:29:57.504Z,75.50
2023-02-09T15:32:27.551Z,75.71
2023-02-09T15:34:55.657Z,75.52
2023-02-09T15:37:26.670Z,76.01
2023-02-09T15:39:57.084Z,76.33
2023-02-09T15:42:52.222Z,76.61
2023-02-09T15:45:40.293Z,76.01
2023-02-09T15:48:09.602Z,77.11
2023-02-09T15:50:40.222Z,77.14
2023-02-09T15:53:12.329Z,77.81
2023-02-09T15:55:41.001Z,77.43
2023-02-09T15:58:15.016Z,77.28
2023-02-09T16:00:43.369Z,77.52
2023-02-09T16:03:16.781Z,77.61
2023-02-09T16:05:46.157Z,78.13
2023-02-09T16:08:19.142Z,77.84
2023-02-09T16:10:47.906Z,78.60
2023-02-09T16:13:19.892Z,78.54
2023-02-09T16:15:48.554Z,78.04
2023-02-09T16:18:16.502Z,78.60
2023-02-09T16:20:48.097Z,78.15
2023-02-09T16:23:20.798Z,78.52
2023-02-09T16:25:50.509Z,78.63
2023-02-09T16:28:21.181Z,78.84
2023-02-09T16:30:52.001Z,79.14
2023-02-09T16:33:20.060Z,79.66
2023-02-09T16:35:53.721Z,79.50
2023-02-09T16:38:23.598Z,79.25
2023-02-09T16:40:51.954Z,79.25
2023-02-09T16:43:22.007Z,79.45
2023-02-09T16:46:02.795Z,79.36
2023-02-09T16:48:34.714Z,79.16
2023-02-09T16:51:03.363Z,79.73
2023-02-09T16:53:33.750Z,79.23
2023-02-09T16:56:02.255Z,80.02
2023-02-09T16:58:32.410Z,79.47
2023-02-09T17:01:00.300Z,79.81
2023-02-09T17:03:34.786Z,79.65
2023-02-09T17:06:03.459Z,79.99
2023-02-09T17:08:33.013Z,80.20
2023-02-09T17:11:02.362Z,80.40
2023-02-09T17:13:32.238Z,79.89
2023-02-09T17:16:02.316Z,80.55
2023-02-09T17:18:33.466Z,80.80
2023-02-09T17:21:03.975Z,80.22
2023-02-09T17:23:32.151Z,80.61
2023-02-09T17:26:00.674Z,80.14
2023-02-09T17:28:29.508Z,79.96
2023-02-09T17:31:02.169Z,79.97
2023-02-09T17:33:33.269Z,80.18
2023-02-09T17:38:50.077Z,80.93
2023-02-09T17:41:20.099Z,80.34
2023-02-09T17:43:48.960Z,80.41
2023-02-09T17:46:20.204Z,80.47
2023-02-09T17:48:49.140Z,80.71
2023-02-09T17:51:21.530Z,80.62
2023-02-09T17:53:49.440Z,80.49
2023-02-09T17:56:18.488Z,81.49
2023-02-09T17:58:46.668Z,80.70
2023-02-09T18:01:26.424Z,81.42
2023-02-09T18:03:55.409Z,81.48
2023-02-09T18:06:30.005Z,81.93
2023-02-09T18:08:57.968Z,81.71
2023-02-09T18:11:41.028Z,81.53
2023-02-09T18:14:10.380Z,81.99
2023-02-09T18:16:41.261Z,81.68
2023-02-09T18:19:09.734Z,82.06
2023-02-09T18:21:38.454Z,82.21
2023-02-09T18:24:07.748Z,82.28
2023-02-09T18:26:35.605Z,82.09
2023-02-09T18:29:03.511Z,82.65
2023-02-09T18:31:31.735Z,82.17
2023-02-09T18:34:00.949Z,82.44
2023-02-09T18:36:28.904Z,82.68
2023-02-09T18:38:57.021Z,82.88
2023-02-09T18:41:24.986Z,82.28
2023-02-09T18:43:54.441Z,82.01
2023-02-09T18:46:24.528Z,82.09
2023-02-09T18:48:52.460Z,82.07
2023-02-09T18:51:22.269Z,82.04
2023-02-09T18:53:51.249Z,82.15
2023-02-09T18:56:20.363Z,81.70
2023-02-09T18:58:49.119Z,81.71
2023-02-09T19:01:17.394Z,81.84
2023-02-09T19:03:45.232Z,81.82
2023-02-09T19:06:13.942Z,81.81
2023-02-09T19:08:43.305Z,82.19
2023-02-09T19:11:16.302Z,82.41
2023-02-09T19:14:04.323Z,82.40
2023-02-09T19:16:32.391Z,81.86
2023-02-09T19:19:00.830Z,82.57
2023-02-09T19:21:29.474Z,82.17
2023-02-09T19:23:58.780Z,82.22
2023-02-09T19:26:26.679Z,82.33
2023-02-09T19:28:57.411Z,82.02
2023-02-09T19:31:25.846Z,82.05
2023-02-09T19:33:56.394Z,82.47
2023-02-09T19:36:24.590Z,82.27
2023-02-09T19:38:52.618Z,82.47
2023-02-09T19:41:23.541Z,82.13
2023-02-09T19:43:56.161Z,82.24
2023-02-09T19:46:24.134Z,82.24
2023-02-09T19:48:53.696Z,82.52
2023-02-09T19:51:21.687Z,82.05
2023-02-09T19:53:50.287Z,82.39
2023-02-09T19:56:20.777Z,82.34
2023-02-09T19:58:50.691Z,82.22
2023-02-09T20:01:19.420Z,82.69
2023-02-09T20:03:48.147Z,82.85
2023-02-09T20:06:17.602Z,82.65
2023-02-09T20:08:45.489Z,82.17
2023-02-09T20:11:17.763Z,82.20
2023-02-09T20:13:46.854Z,82.95
2023-02-09T20:16:20.897Z,82.88
2023-02-09T20:18:49.086Z,82.27
2023-02-09T20:21:18.727Z,82.95
2023-02-09T20:23:47.322Z,82.84
2023-02-09T20:26:18.356Z,82.67
2023-02-09T20:28:46.240Z,82.62
2023-02-09T20:31:15.853Z,82.44
2023-02-09T20:33:45.308Z,82.30
2023-02-09T20:36:13.544Z,82.45
2023-02-09T20:38:41.694Z,82.62
2023-02-09T20:41:09.975Z,83.06
2023-02-09T20:43:55.397Z,82.69
2023-02-09T20:46:55.382Z,83.23
2023-02-09T20:49:29.935Z,82.58
2023-02-09T20:51:58.459Z,82.48
2023-02-09T20:54:26.360Z,82.75
2023-02-09T20:56:54.298Z,82.99
2023-02-09T20:59:23.685Z,82.82
2023-02-09T21:01:52.287Z,82.52
2023-02-09T21:04:20.183Z,82.60
2023-02-09T21:06:49.613Z,82.73
2023-02-09T21:09:17.520Z,82.50
2023-02-09T21:11:45.448Z,82.77
2023-02-09T21:14:21.992Z,82.48
2023-02-09T21:17:00.664Z,81.91
2023-02-09T21:19:28.705Z,82.07
2023-02-09T21:21:58.090Z,81.78
2023-02-09T21:24:26.030Z,82.16
2023-02-09T21:26:54.152Z,81.92
2023-02-09T21:29:21.962Z,81.60
2023-02-09T21:31:51.375Z,81.92
2023-02-09T21:34:19.615Z,81.88
2023-02-09T21:36:47.754Z,82.47
2023-02-09T21:39:16.950Z,82.75
2023-02-09T21:42:02.678Z,82.78
2023-02-09T21:44:30.709Z,82.96
2023-02-09T21:47:00.579Z,82.92
2023-02-09T21:49:31.668Z,82.69
2023-02-09T21:51:59.790Z,83.70
2023-02-09T21:54:33.364Z,84.67
2023-02-09T21:57:01.312Z,85.12
2023-02-09T21:59:29.430Z,84.92
2023-02-09T22:01:57.421Z,86.22
2023-02-09T22:04:25.818Z,87.21
2023-02-09T22:06:53.698Z,88.99
2023-02-09T22:09:23.445Z,88.99
2023-02-09T22:11:52.725Z,90.83
2023-02-09T22:14:20.532Z,90.29
2023-02-09T22:16:48.604Z,88.83
2023-02-09T22:19:16.703Z,88.49
2023-02-09T22:21:44.672Z,87.51
2023-02-09T22:24:14.196Z,87.75
2023-02-09T22:26:42.008Z,87.04
2023-02-09T22:29:13.783Z,87.00
2023-02-09T22:31:42.102Z,87.23
2023-02-09T22:34:10.060Z,86.04
2023-02-09T22:36:39.791Z,85.10
2023-02-09T22:39:08.740Z,83.29
2023-02-09T22:41:36.784Z,80.09
2023-02-09T22:44:07.279Z,79.57
2023-02-09T22:46:39.508Z,77.74
2023-02-09T22:49:09.656Z,75.62
2023-02-09T22:51:37.883Z,75.27
2023-02-09T22:54:06.710Z,72.57
2023-02-09T22:56:35.314Z,70.86
2023-02-09T22:59:03.136Z,68.26
2023-02-09T23:01:31.763Z,67.46
2023-02-09T23:04:01.534Z,66.32
2023-02-09T23:06:30.244Z,65.41
2023-02-09T23:08:59.990Z,64.16
2023-02-09T23:11:29.688Z,64.36
2023-02-09T23:14:11.903Z,63.25
2023-02-09T23:16:41.645Z,62.16
2023-02-09T23:19:13.638Z,62.27
2023-02-09T23:21:43.857Z,62.17
2023-02-09T23:24:12.296Z,62.20
2023-02-09T23:26:40.184Z,62.93
2023-02-09T23:29:10.888Z,65.46
2023-02-09T23:31:39.436Z,65.10
2023-02-09T23:34:07.713Z,64.54
2023-02-09T23:36:37.267Z,63.86
2023-02-09T23:39:07.089Z,63.09
2023-02-09T23:41:36.296Z,61.58
2023-02-09T23:44:04.670Z,61.08
2023-02-09T23:46:32.675Z,59.68
2023-02-09T23:49:00.797Z,59.69
2023-02-09T23:51:31.082Z,59.33
2023-02-09T23:54:01.719Z,58.61
2023-02-09T23:56:33.291Z,58.55
2023-02-09T23:59:01.115Z,58.46
